createdAt,value
2018-01-25T00:00:18.122Z,-7.69
2018-01-25T00:02:45.729Z,-7.80
2018-01-25T00:05:13.320Z,-7.81
2018-01-25T00:07:40.893Z,-7.82
2018-01-25T00:10:08.649Z,-7.89
2018-01-25T00:12:36.275Z,-7.97
2018-01-25T00:15:03.855Z,-8.02
2018-01-25T00:17:31.454Z,-8.00
2018-01-25T00:19:59.011Z,-7.96
2018-01-25T00:22:26.660Z,-7.97
2018-01-25T00:24:54.288Z,-7.94
2018-01-25T00:27:21.867Z,-7.88
2018-01-25T00:29:49.557Z,-7.92
2018-01-25T00:32:17.167Z,-7.93
2018-01-25T00:34:44.749Z,-8.00
2018-01-25T00:37:12.319Z,-8.01
2018-01-25T00:39:40.141Z,-8.03
2018-01-25T00:42:07.724Z,-8.06
2018-01-25T00:44:35.307Z,-8.03
2018-01-25T00:47:02.932Z,-7.97
2018-01-25T00:49:30.517Z,-8.03
2018-01-25T00:51:58.255Z,-8.03
2018-01-25T00:54:25.872Z,-8.08
2018-01-25T00:56:53.463Z,-8.43
2018-01-25T00:59:21.026Z,-8.57
2018-01-25T01:01:48.618Z,-8.61
2018-01-25T01:04:16.180Z,-8.63
2018-01-25T01:06:43.757Z,-8.63
2018-01-25T01:09:11.347Z,-8.63
2018-01-25T01:11:38.951Z,-8.67
2018-01-25T01:14:06.573Z,-8.72
2018-01-25T01:16:34.192Z,-8.79
2018-01-25T01:19:01.759Z,-8.84
2018-01-25T01:21:29.326Z,-8.84
2018-01-25T01:23:56.965Z,-8.85
2018-01-25T01:26:24.558Z,-8.87
2018-01-25T01:28:52.127Z,-8.85
2018-01-25T01:31:19.751Z,-8.93
2018-01-25T01:33:47.318Z,-8.90
2018-01-25T01:36:14.888Z,-8.88
2018-01-25T01:38:42.520Z,-8.94
2018-01-25T01:41:10.087Z,-8.91
2018-01-25T01:43:37.673Z,-8.92
2018-01-25T01:46:05.286Z,-8.96
2018-01-25T01:48:32.863Z,-8.97
2018-01-25T01:51:00.447Z,-8.99
2018-01-25T01:53:28.069Z,-8.98
2018-01-25T01:55:55.681Z,-9.02
2018-01-25T01:58:23.251Z,-9.00
2018-01-25T02:00:50.860Z,-9.00
2018-01-25T02:03:18.432Z,-8.99
2018-01-25T02:05:46.071Z,-9.04
2018-01-25T02:08:13.678Z,-9.06
2018-01-25T02:10:41.248Z,-9.03
2018-01-25T02:13:08.820Z,-9.03
2018-01-25T02:15:36.436Z,-9.10
2018-01-25T02:18:04.009Z,-9.06
2018-01-25T02:20:31.616Z,-9.07
2018-01-25T02:22:59.203Z,-9.11
2018-01-25T02:25:26.815Z,-9.16
2018-01-25T02:27:54.421Z,-9.18
2018-01-25T02:30:22.064Z,-9.21
2018-01-25T02:32:49.651Z,-9.22
2018-01-25T02:35:17.242Z,-9.25
2018-01-25T02:37:44.861Z,-9.26
2018-01-25T02:40:12.436Z,-9.25
2018-01-25T02:42:40.011Z,-9.24
2018-01-25T02:45:07.607Z,-9.26
2018-01-25T02:47:35.180Z,-9.30
2018-01-25T02:50:02.752Z,-9.35
2018-01-25T02:52:30.357Z,-9.35
2018-01-25T02:54:57.924Z,-9.40
2018-01-25T02:57:25.513Z,-9.49
2018-01-25T02:59:53.129Z,-9.53
2018-01-25T03:02:20.721Z,-9.54
2018-01-25T03:04:48.291Z,-9.55
2018-01-25T03:07:15.906Z,-9.59
2018-01-25T03:09:43.467Z,-9.65
2018-01-25T03:12:11.090Z,-9.59
2018-01-25T03:14:38.753Z,-9.60
2018-01-25T03:17:06.425Z,-9.62
2018-01-25T03:19:34.017Z,-9.67
2018-01-25T03:22:01.614Z,-9.69
2018-01-25T03:24:29.176Z,-9.76
2018-01-25T03:26:56.760Z,-9.77
2018-01-25T03:29:24.752Z,-9.74
2018-01-25T03:31:52.440Z,-9.79
2018-01-25T03:34:20.010Z,-9.83
2018-01-25T03:36:47.631Z,-9.79
2018-01-25T03:39:15.216Z,-9.78
2018-01-25T03:41:42.783Z,-9.77
2018-01-25T03:44:10.498Z,-9.78
2018-01-25T03:46:38.079Z,-9.84
2018-01-25T03:49:05.666Z,-9.78
2018-01-25T03:51:33.290Z,-9.81
2018-01-25T03:54:00.934Z,-9.81
2018-01-25T03:56:28.490Z,-9.86
2018-01-25T03:58:56.264Z,-9.87
2018-01-25T04:01:23.988Z,-9.81
2018-01-25T04:03:51.565Z,-9.71
2018-01-25T04:06:19.169Z,-9.71
2018-01-25T04:08:46.746Z,-9.71
2018-01-25T04:11:14.329Z,-9.76
2018-01-25T04:13:41.941Z,-9.82
2018-01-25T04:16:09.532Z,-9.88
2018-01-25T04:18:37.125Z,-9.91
2018-01-25T04:21:04.751Z,-9.98
2018-01-25T04:23:32.341Z,-9.94
2018-01-25T04:25:59.928Z,-9.97
2018-01-25T04:28:27.549Z,-9.98
2018-01-25T04:30:55.133Z,-10.00
2018-01-25T04:33:22.710Z,-9.95
2018-01-25T04:35:50.323Z,-9.95
2018-01-25T04:38:18.049Z,-10.04
2018-01-25T04:40:45.635Z,-10.07
2018-01-25T04:43:13.307Z,-10.08
2018-01-25T04:45:40.901Z,-10.10
2018-01-25T04:48:08.491Z,-10.12
2018-01-25T04:50:36.356Z,-10.12
2018-01-25T04:53:04.029Z,-10.13
2018-01-25T04:55:31.600Z,-10.14
2018-01-25T04:57:59.248Z,-10.18
2018-01-25T05:00:26.828Z,-10.24
2018-01-25T05:02:54.417Z,-10.26
2018-01-25T05:05:22.041Z,-10.26
2018-01-25T05:07:49.631Z,-10.25
2018-01-25T05:10:17.230Z,-10.22
2018-01-25T05:12:44.847Z,-10.25
2018-01-25T05:15:12.428Z,-10.28
2018-01-25T05:17:41.896Z,-10.19
2018-01-25T05:20:09.565Z,-10.30
2018-01-25T05:22:37.186Z,-10.34
2018-01-25T05:25:04.763Z,-10.34
2018-01-25T05:27:32.529Z,-10.33
2018-01-25T05:30:00.114Z,-10.33
2018-01-25T05:32:27.775Z,-10.32
2018-01-25T05:34:55.395Z,-10.32
2018-01-25T05:37:22.962Z,-10.27
2018-01-25T05:39:50.566Z,-10.31
2018-01-25T05:42:18.195Z,-10.33
2018-01-25T05:44:45.773Z,-10.29
2018-01-25T05:47:13.350Z,-10.33
2018-01-25T05:49:41.014Z,-10.30
2018-01-25T05:52:08.576Z,-10.32
2018-01-25T05:54:36.168Z,-10.29
2018-01-25T05:57:03.797Z,-10.27
2018-01-25T05:59:31.386Z,-10.20
2018-01-25T06:01:58.981Z,-10.12
2018-01-25T06:04:26.709Z,-10.03
2018-01-25T06:06:54.291Z,-9.93
2018-01-25T06:09:21.864Z,-9.90
2018-01-25T06:11:49.493Z,-9.89
2018-01-25T06:14:17.078Z,-9.85
2018-01-25T06:16:44.724Z,-9.70
2018-01-25T06:19:12.338Z,-9.68
2018-01-25T06:21:39.925Z,-9.57
2018-01-25T06:24:07.511Z,-9.43
2018-01-25T06:26:35.193Z,-9.21
2018-01-25T06:29:02.762Z,-8.43
2018-01-25T06:31:30.345Z,-7.25
2018-01-25T06:33:57.983Z,-6.83
2018-01-25T06:36:25.616Z,-6.82
2018-01-25T06:38:53.213Z,-5.69
2018-01-25T06:41:20.814Z,-4.57
2018-01-25T06:43:48.387Z,-3.97
2018-01-25T06:46:16.083Z,-3.09
2018-01-25T06:48:43.687Z,-2.34
2018-01-25T06:51:11.267Z,-1.82
2018-01-25T06:53:38.847Z,-0.96
2018-01-25T06:56:06.525Z,-0.29
2018-01-25T06:58:34.095Z,0.06
2018-01-25T07:01:01.697Z,0.35
2018-01-25T07:03:29.500Z,0.79
2018-01-25T07:05:57.124Z,0.50
2018-01-25T07:08:24.825Z,1.45
2018-01-25T07:10:52.481Z,1.67
2018-01-25T07:13:20.051Z,1.60
2018-01-25T07:15:47.640Z,1.01
2018-01-25T07:18:15.473Z,-0.40
2018-01-25T07:20:43.050Z,-1.68
2018-01-25T07:23:10.628Z,-2.80
2018-01-25T07:25:38.271Z,-3.50
2018-01-25T07:28:05.856Z,-4.21
2018-01-25T07:30:33.436Z,-4.56
2018-01-25T07:33:01.062Z,-4.94
2018-01-25T07:35:28.652Z,-5.45
2018-01-25T07:37:56.224Z,-5.51
2018-01-25T07:40:23.846Z,-5.46
2018-01-25T07:42:51.874Z,-5.24
2018-01-25T07:45:19.518Z,-4.98
2018-01-25T07:47:47.148Z,-4.19
2018-01-25T07:50:14.752Z,-3.02
2018-01-25T07:52:42.400Z,-1.44
2018-01-25T07:55:10.015Z,0.08
2018-01-25T07:57:43.271Z,0.76
2018-01-25T08:00:10.843Z,1.11
2018-01-25T08:02:38.491Z,0.84
2018-01-25T08:05:06.085Z,1.91
2018-01-25T08:07:33.694Z,2.46
2018-01-25T08:10:01.279Z,2.59
2018-01-25T08:12:28.861Z,2.41
2018-01-25T08:14:56.485Z,2.70
2018-01-25T08:17:24.057Z,3.06
2018-01-25T08:19:51.649Z,3.41
2018-01-25T08:22:19.281Z,4.40
2018-01-25T08:24:46.915Z,5.09
2018-01-25T08:27:14.505Z,5.36
2018-01-25T08:29:42.127Z,5.01
2018-01-25T08:32:09.738Z,4.76
2018-01-25T08:34:37.298Z,5.12
2018-01-25T08:37:04.920Z,4.95
2018-01-25T08:39:32.491Z,5.10
2018-01-25T08:42:00.064Z,5.50
2018-01-25T08:44:27.663Z,5.62
2018-01-25T08:46:55.220Z,5.31
2018-01-25T08:49:22.799Z,4.95
2018-01-25T08:51:50.412Z,5.05
2018-01-25T08:54:18.001Z,5.02
2018-01-25T08:56:45.581Z,5.26
2018-01-25T08:59:13.183Z,4.79
2018-01-25T09:01:40.763Z,5.46
2018-01-25T09:04:08.350Z,5.57
2018-01-25T09:06:35.948Z,5.96
2018-01-25T09:09:03.627Z,6.14
2018-01-25T09:11:31.484Z,6.12
2018-01-25T09:13:59.099Z,6.65
2018-01-25T09:16:26.675Z,6.69
2018-01-25T09:18:54.320Z,7.37
2018-01-25T09:21:21.917Z,7.27
2018-01-25T09:23:49.476Z,6.87
2018-01-25T09:26:17.044Z,6.99
2018-01-25T09:28:44.648Z,7.06
2018-01-25T09:31:12.228Z,7.38
2018-01-25T09:33:39.795Z,7.67
2018-01-25T09:36:07.398Z,8.14
2018-01-25T09:38:34.972Z,8.83
2018-01-25T09:41:02.544Z,9.02
2018-01-25T09:43:30.215Z,9.70
2018-01-25T09:45:57.799Z,10.24
2018-01-25T09:48:25.392Z,10.41
2018-01-25T09:50:53.043Z,10.34
2018-01-25T09:53:20.633Z,10.63
2018-01-25T09:55:48.220Z,10.52
2018-01-25T09:58:15.838Z,10.71
2018-01-25T10:00:43.493Z,10.31
2018-01-25T10:03:11.080Z,10.33
2018-01-25T10:05:38.687Z,10.33
2018-01-25T10:08:06.412Z,10.85
2018-01-25T10:10:33.990Z,11.19
2018-01-25T10:13:01.589Z,11.09
2018-01-25T10:15:29.163Z,11.05
2018-01-25T10:17:56.732Z,10.16
2018-01-25T10:20:24.355Z,10.74
2018-01-25T10:22:51.937Z,11.33
2018-01-25T10:25:19.534Z,11.54
2018-01-25T10:27:47.161Z,12.55
2018-01-25T10:30:14.755Z,12.36
2018-01-25T10:32:42.436Z,12.68
2018-01-25T10:35:10.064Z,12.25
2018-01-25T10:37:37.742Z,12.32
2018-01-25T10:40:05.324Z,13.28
2018-01-25T10:42:33.085Z,13.77
2018-01-25T10:45:00.658Z,14.14
2018-01-25T10:47:28.222Z,13.66
2018-01-25T10:49:55.836Z,14.74
2018-01-25T10:52:23.441Z,14.56
2018-01-25T10:54:50.995Z,13.76
2018-01-25T10:57:18.612Z,13.93
2018-01-25T10:59:46.179Z,14.09
2018-01-25T11:02:13.823Z,14.62
2018-01-25T11:04:41.447Z,14.39
2018-01-25T11:07:09.020Z,15.50
2018-01-25T11:09:36.586Z,14.78
2018-01-25T11:12:04.213Z,14.79
2018-01-25T11:14:31.770Z,15.18
2018-01-25T11:16:59.355Z,14.92
2018-01-25T11:19:26.971Z,14.98
2018-01-25T11:21:54.529Z,14.10
2018-01-25T11:24:22.106Z,13.42
2018-01-25T11:26:49.700Z,13.39
2018-01-25T11:29:17.260Z,13.65
2018-01-25T11:31:44.815Z,14.10
2018-01-25T11:34:12.425Z,13.88
2018-01-25T11:36:39.964Z,14.01
2018-01-25T11:39:07.524Z,13.87
2018-01-25T11:41:35.125Z,14.16
2018-01-25T11:44:02.688Z,14.31
2018-01-25T11:46:30.297Z,14.94
2018-01-25T11:48:57.883Z,15.24
2018-01-25T11:51:25.449Z,15.22
2018-01-25T11:53:53.002Z,13.96
2018-01-25T11:56:20.601Z,14.35
2018-01-25T11:58:48.152Z,14.80
2018-01-25T12:01:15.718Z,14.53
2018-01-25T12:03:43.312Z,14.08
2018-01-25T12:06:10.889Z,13.87
2018-01-25T12:08:38.444Z,13.63
2018-01-25T12:11:06.034Z,13.18
2018-01-25T12:13:33.648Z,12.83
2018-01-25T12:16:01.225Z,12.99
2018-01-25T12:18:28.852Z,13.33
2018-01-25T12:20:56.499Z,13.45
2018-01-25T12:23:24.061Z,13.35
2018-01-25T12:25:51.655Z,12.75
2018-01-25T12:28:19.235Z,12.94
2018-01-25T12:30:46.802Z,12.70
2018-01-25T12:33:14.421Z,12.80
2018-01-25T12:35:41.974Z,12.35
2018-01-25T12:38:09.539Z,12.87
2018-01-25T12:40:37.171Z,12.79
2018-01-25T12:43:04.776Z,13.37
2018-01-25T12:45:32.508Z,13.89
2018-01-25T12:48:00.095Z,13.06
2018-01-25T12:50:27.657Z,11.94
2018-01-25T12:52:55.243Z,10.94
2018-01-25T12:55:22.833Z,9.96
2018-01-25T12:57:50.388Z,9.08
2018-01-25T13:00:17.955Z,8.32
2018-01-25T13:02:45.790Z,9.61
2018-01-25T13:05:13.376Z,10.59
2018-01-25T13:07:40.947Z,9.73
2018-01-25T13:10:08.528Z,8.66
2018-01-25T13:12:36.124Z,8.83
2018-01-25T13:15:03.675Z,9.35
2018-01-25T13:17:31.498Z,10.44
2018-01-25T13:19:59.075Z,10.31
2018-01-25T13:22:26.625Z,10.84
2018-01-25T13:24:54.253Z,11.00
2018-01-25T13:27:21.814Z,10.92
2018-01-25T13:29:49.413Z,11.50
2018-01-25T13:32:19.689Z,10.55
2018-01-25T13:34:47.278Z,10.35
2018-01-25T13:37:15.205Z,10.76
2018-01-25T13:39:42.867Z,11.00
2018-01-25T13:42:10.481Z,10.52
2018-01-25T13:44:38.051Z,9.76
2018-01-25T13:47:05.707Z,9.80
2018-01-25T13:49:33.304Z,10.77
2018-01-25T13:52:00.960Z,11.06
2018-01-25T13:54:28.643Z,11.64
2018-01-25T13:56:56.244Z,11.44
2018-01-25T13:59:23.804Z,11.15
2018-01-25T14:01:51.422Z,10.85
2018-01-25T14:04:19.014Z,10.50
2018-01-25T14:06:46.584Z,10.65
2018-01-25T14:09:15.267Z,9.99
2018-01-25T14:11:42.867Z,9.91
2018-01-25T14:14:10.461Z,8.92
2018-01-25T14:16:38.080Z,7.84
2018-01-25T14:19:05.640Z,6.83
2018-01-25T14:21:33.212Z,6.16
2018-01-25T14:24:00.795Z,5.41
2018-01-25T14:26:28.361Z,4.83
2018-01-25T14:28:55.928Z,3.96
2018-01-25T14:31:23.578Z,3.45
2018-01-25T14:33:51.191Z,3.22
2018-01-25T14:36:18.734Z,2.76
2018-01-25T14:38:46.367Z,2.55
2018-01-25T14:41:13.980Z,2.41
2018-01-25T14:43:41.560Z,2.20
2018-01-25T14:46:09.187Z,2.00
2018-01-25T14:48:36.844Z,2.05
2018-01-25T14:51:04.406Z,1.99
2018-01-25T14:53:32.176Z,1.90
2018-01-25T14:55:59.745Z,1.86
2018-01-25T14:58:27.294Z,1.81
2018-01-25T15:00:54.877Z,1.92
2018-01-25T15:03:22.432Z,1.82
2018-01-25T15:05:49.980Z,1.75
2018-01-25T15:08:17.577Z,1.63
2018-01-25T15:10:45.141Z,1.52
2018-01-25T15:13:12.714Z,1.46
2018-01-25T15:15:40.318Z,1.39
2018-01-25T15:18:07.892Z,1.22
2018-01-25T15:20:35.462Z,1.02
2018-01-25T15:23:03.119Z,0.79
2018-01-25T15:25:36.340Z,0.66
2018-01-25T15:28:03.913Z,0.52
2018-01-25T15:30:31.482Z,0.38
2018-01-25T15:32:59.064Z,0.22
2018-01-25T15:35:26.745Z,0.08
2018-01-25T15:37:54.573Z,0.16
2018-01-25T15:40:22.135Z,0.23
2018-01-25T15:42:49.737Z,0.45
2018-01-25T15:45:17.297Z,0.31
2018-01-25T15:47:44.869Z,0.25
2018-01-25T15:50:12.486Z,0.09
2018-01-25T15:52:40.120Z,-0.13
2018-01-25T15:55:07.679Z,-0.16
2018-01-25T15:57:35.254Z,-0.21
2018-01-25T16:00:02.842Z,-0.34
2018-01-25T16:02:30.391Z,-0.37
2018-01-25T16:04:58.000Z,-0.38
2018-01-25T16:07:25.890Z,-0.48
2018-01-25T16:09:53.552Z,-0.55
2018-01-25T16:12:21.186Z,-0.48
2018-01-25T16:14:48.866Z,-0.56
2018-01-25T16:17:16.471Z,-0.48
2018-01-25T16:19:44.138Z,-0.44
2018-01-25T16:22:11.744Z,-0.49
2018-01-25T16:24:39.507Z,-0.49
2018-01-25T16:27:07.014Z,-0.74
2018-01-25T16:29:34.654Z,-0.89
2018-01-25T16:32:02.217Z,-0.74
2018-01-25T16:34:29.799Z,-0.83
2018-01-25T16:36:57.363Z,-0.98
2018-01-25T16:39:24.963Z,-0.94
2018-01-25T16:41:52.581Z,-1.01
2018-01-25T16:44:20.162Z,-1.20
2018-01-25T16:46:47.734Z,-1.23
2018-01-25T16:49:15.373Z,-1.29
2018-01-25T16:51:42.940Z,-1.24
2018-01-25T16:54:10.542Z,-1.25
2018-01-25T16:56:38.151Z,-1.25
2018-01-25T16:59:05.735Z,-1.22
2018-01-25T17:01:33.291Z,-1.26
2018-01-25T17:04:00.903Z,-1.35
2018-01-25T17:06:28.485Z,-1.38
2018-01-25T17:08:56.112Z,-1.40
2018-01-25T17:11:23.721Z,-1.32
2018-01-25T17:13:51.305Z,-1.51
2018-01-25T17:16:18.880Z,-1.54
2018-01-25T17:18:46.497Z,-1.67
2018-01-25T17:21:14.057Z,-1.70
2018-01-25T17:23:41.619Z,-1.75
2018-01-25T17:26:09.250Z,-1.89
2018-01-25T17:28:36.840Z,-1.97
2018-01-25T17:31:04.437Z,-1.85
2018-01-25T17:33:32.038Z,-1.93
2018-01-25T17:35:59.616Z,-1.94
2018-01-25T17:38:27.162Z,-1.84
2018-01-25T17:40:54.755Z,-1.83
2018-01-25T17:43:22.701Z,-1.78
2018-01-25T17:45:50.286Z,-1.98
2018-01-25T17:48:17.888Z,-1.79
2018-01-25T17:50:45.465Z,-1.92
2018-01-25T17:53:13.027Z,-2.13
2018-01-25T17:55:41.196Z,-2.21
2018-01-25T17:58:08.831Z,-2.39
2018-01-25T18:00:36.420Z,-2.54
2018-01-25T18:03:05.476Z,-2.67
2018-01-25T18:05:33.141Z,-2.70
2018-01-25T18:08:00.696Z,-2.63
2018-01-25T18:10:28.403Z,-2.55
2018-01-25T18:12:55.960Z,-2.54
2018-01-25T18:15:23.522Z,-2.40
2018-01-25T18:17:51.123Z,-2.54
2018-01-25T18:20:19.108Z,-2.71
2018-01-25T18:22:46.682Z,-2.90
2018-01-25T18:25:14.297Z,-3.07
2018-01-25T18:27:41.899Z,-3.20
2018-01-25T18:30:09.642Z,-2.99
2018-01-25T18:32:37.263Z,-3.03
2018-01-25T18:35:04.819Z,-3.21
2018-01-25T18:37:32.381Z,-3.38
2018-01-25T18:40:00.051Z,-3.43
2018-01-25T18:42:27.634Z,-3.31
2018-01-25T18:44:55.385Z,-3.40
2018-01-25T18:47:23.044Z,-3.39
2018-01-25T18:49:50.593Z,-3.23
2018-01-25T18:52:18.168Z,-3.35
2018-01-25T18:54:45.765Z,-3.51
2018-01-25T18:57:13.340Z,-3.73
2018-01-25T18:59:40.914Z,-3.84
2018-01-25T19:02:08.521Z,-3.94
2018-01-25T19:04:36.080Z,-3.95
2018-01-25T19:07:03.734Z,-3.98
2018-01-25T19:09:31.339Z,-4.11
2018-01-25T19:11:59.038Z,-4.13
2018-01-25T19:14:26.974Z,-4.14
2018-01-25T19:16:54.573Z,-4.20
2018-01-25T19:19:22.150Z,-4.28
2018-01-25T19:21:49.713Z,-4.26
2018-01-25T19:24:17.305Z,-4.28
2018-01-25T19:26:44.905Z,-4.33
2018-01-25T19:29:12.479Z,-4.36
2018-01-25T19:31:40.146Z,-4.37
2018-01-25T19:34:07.797Z,-4.46
2018-01-25T19:36:35.473Z,-4.46
2018-01-25T19:39:03.167Z,-4.50
2018-01-25T19:41:30.737Z,-4.52
2018-01-25T19:43:58.304Z,-4.56
2018-01-25T19:46:25.891Z,-4.64
2018-01-25T19:48:53.470Z,-4.58
2018-01-25T19:51:21.034Z,-4.60
2018-01-25T19:53:48.694Z,-4.58
2018-01-25T19:56:16.256Z,-4.64
2018-01-25T19:58:43.824Z,-4.67
2018-01-25T20:01:11.423Z,-4.79
2018-01-25T20:03:38.973Z,-4.80
2018-01-25T20:06:06.555Z,-4.79
2018-01-25T20:08:34.154Z,-5.07
2018-01-25T20:11:01.711Z,-5.18
2018-01-25T20:13:29.281Z,-5.27
2018-01-25T20:15:56.881Z,-5.34
2018-01-25T20:18:24.435Z,-5.37
2018-01-25T20:20:52.002Z,-5.11
2018-01-25T20:23:19.627Z,-5.16
2018-01-25T20:25:47.191Z,-5.22
2018-01-25T20:28:14.761Z,-5.18
2018-01-25T20:30:42.363Z,-5.19
2018-01-25T20:33:09.950Z,-5.19
2018-01-25T20:35:38.105Z,-5.20
2018-01-25T20:38:07.750Z,-5.17
2018-01-25T20:40:37.111Z,-5.18
2018-01-25T20:43:05.214Z,-5.16
2018-01-25T20:45:34.872Z,-5.16
2018-01-25T20:48:04.033Z,-5.20
2018-01-25T20:50:31.803Z,-5.22
2018-01-25T20:52:59.959Z,-5.26
2018-01-25T20:55:27.932Z,-5.23
2018-01-25T20:57:55.497Z,-5.21
2018-01-25T21:00:23.144Z,-5.22
2018-01-25T21:02:50.704Z,-5.20
2018-01-25T21:05:18.524Z,-5.55
2018-01-25T21:07:46.138Z,-5.63
2018-01-25T21:10:13.782Z,-5.68
2018-01-25T21:12:41.466Z,-5.89
2018-01-25T21:15:09.076Z,-5.77
2018-01-25T21:17:36.655Z,-5.76
2018-01-25T21:20:04.291Z,-5.85
2018-01-25T21:22:31.901Z,-5.83
2018-01-25T21:24:59.540Z,-5.90
2018-01-25T21:27:27.105Z,-5.96
2018-01-25T21:29:54.694Z,-6.00
2018-01-25T21:32:22.256Z,-5.97
2018-01-25T21:34:50.007Z,-6.04
2018-01-25T21:37:18.544Z,-6.10
2018-01-25T21:39:46.123Z,-6.10
2018-01-25T21:42:13.730Z,-6.12
2018-01-25T21:44:41.417Z,-6.07
2018-01-25T21:47:08.974Z,-5.29
2018-01-25T21:49:36.544Z,-5.48
2018-01-25T21:52:04.262Z,-5.52
2018-01-25T21:54:31.832Z,-5.62
2018-01-25T21:56:59.656Z,-5.72
2018-01-25T21:59:27.246Z,-5.78
2018-01-25T22:01:54.806Z,-5.80
2018-01-25T22:04:22.755Z,-5.85
2018-01-25T22:06:50.375Z,-6.12
2018-01-25T22:09:17.971Z,-6.31
2018-01-25T22:11:45.579Z,-6.37
2018-01-25T22:14:13.636Z,-6.36
2018-01-25T22:16:41.199Z,-6.50
2018-01-25T22:19:08.781Z,-6.52
2018-01-25T22:21:36.614Z,-6.45
2018-01-25T22:24:04.463Z,-6.49
2018-01-25T22:26:32.053Z,-6.54
2018-01-25T22:28:59.678Z,-6.56
2018-01-25T22:31:27.236Z,-6.57
2018-01-25T22:33:54.802Z,-6.66
2018-01-25T22:36:22.430Z,-6.59
2018-01-25T22:38:49.995Z,-6.62
2018-01-25T22:41:17.721Z,-6.66
2018-01-25T22:43:45.365Z,-6.72
2018-01-25T22:46:13.017Z,-6.73
2018-01-25T22:48:40.626Z,-6.72
2018-01-25T22:51:08.237Z,-6.79
2018-01-25T22:53:35.844Z,-6.78
2018-01-25T22:56:03.409Z,-6.78
2018-01-25T22:58:31.071Z,-6.82
2018-01-25T23:00:58.700Z,-6.86
2018-01-25T23:03:26.309Z,-6.87
2018-01-25T23:05:53.874Z,-6.78
2018-01-25T23:08:21.427Z,-6.81
2018-01-25T23:10:49.023Z,-6.78
2018-01-25T23:13:16.602Z,-6.80
2018-01-25T23:15:44.177Z,-6.85
2018-01-25T23:18:12.020Z,-7.02
2018-01-25T23:20:39.586Z,-6.88
2018-01-25T23:23:07.167Z,-6.97
2018-01-25T23:25:34.754Z,-6.94
2018-01-25T23:28:02.326Z,-6.93
2018-01-25T23:30:29.940Z,-6.94
2018-01-25T23:32:57.559Z,-7.03
2018-01-25T23:35:25.246Z,-7.03
2018-01-25T23:37:52.803Z,-7.07
2018-01-25T23:40:20.402Z,-7.14
2018-01-25T23:42:47.969Z,-7.12
2018-01-25T23:45:15.561Z,-7.07
2018-01-25T23:47:43.354Z,-7.07
2018-01-25T23:50:11.028Z,-7.13
2018-01-25T23:52:38.588Z,-7.11
2018-01-25T23:55:07.491Z,-7.09
2018-01-25T23:57:35.242Z,-7.16
